Time;durP1;ratioP1;P1;durP2;ratioP2;P2;SDS_P1;SDS_P2;PMS_P1;PMS_P2;Temp;Humidity;BMP_temperature;BMP_pressure;BME280_temperature;BME280_humidity;BME280_pressure;Samples;Min_cycle;Max_cycle;Signal;HPM_P1;HPM_P2
2021/09/24 00:01:58;;;;;;;9.25;3.53;;;;;;;15.78;100.00;101671.06;5261995;28;20020;-67
2021/09/24 00:04:31;;;;;;;11.20;4.03;;;;;;;15.74;100.00;101670.50;5264374;28;20033;-66
2021/09/24 00:07:03;;;;;;;8.63;3.47;;;;;;;15.73;100.00;101663.56;5263634;28;20547;-67
2021/09/24 00:09:35;;;;;;;8.43;3.63;;;;;;;15.74;100.00;101667.88;5265794;28;20037;-67
2021/09/24 00:12:06;;;;;;;10.13;3.70;;;;;;;15.70;100.00;101663.03;5264330;28;20028;-67
2021/09/24 00:14:38;;;;;;;7.13;3.47;;;;;;;15.74;100.00;101662.59;5264891;28;20036;-67
2021/09/24 00:17:09;;;;;;;9.88;4.28;;;;;;;15.72;100.00;101655.78;5262633;28;20163;-67
2021/09/24 00:19:40;;;;;;;7.68;4.13;;;;;;;15.70;100.00;101665.66;5264168;28;20024;-67
2021/09/24 00:22:12;;;;;;;10.05;4.28;;;;;;;15.70;100.00;101663.84;5266267;28;20100;-67
2021/09/24 00:24:43;;;;;;;9.23;4.25;;;;;;;15.71;100.00;101667.31;5263955;28;20027;-67
2021/09/24 00:27:15;;;;;;;8.60;4.05;;;;;;;15.69;100.00;101672.78;5265220;28;20104;-66
2021/09/24 00:29:46;;;;;;;11.13;5.03;;;;;;;15.69;100.00;101661.38;5265100;28;20029;-67
2021/09/24 00:32:17;;;;;;;11.50;4.60;;;;;;;15.70;100.00;101655.09;5265674;28;20074;-67
2021/09/24 00:34:49;;;;;;;9.98;4.32;;;;;;;15.67;100.00;101650.94;5263632;28;20024;-66
2021/09/24 00:37:20;;;;;;;12.80;5.22;;;;;;;15.65;100.00;101655.53;5263368;28;20091;-68
2021/09/24 00:39:52;;;;;;;10.05;4.68;;;;;;;15.65;100.00;101647.63;5266245;28;20089;-67
2021/09/24 00:42:23;;;;;;;10.80;4.70;;;;;;;15.69;100.00;101646.34;5265491;28;20035;-66
2021/09/24 00:44:54;;;;;;;9.60;5.05;;;;;;;15.65;100.00;101636.19;5263849;28;20107;-68
2021/09/24 00:47:26;;;;;;;11.40;5.27;;;;;;;15.67;100.00;101642.19;5263733;28;20025;-67
2021/09/24 00:49:58;;;;;;;8.75;4.88;;;;;;;15.65;100.00;101641.47;5265414;28;20270;-66
2021/09/24 00:52:29;;;;;;;10.23;6.00;;;;;;;15.65;100.00;101634.41;5262549;28;20025;-65
2021/09/24 00:55:00;;;;;;;10.77;5.35;;;;;;;15.64;100.00;101635.31;5265981;28;20028;-67
2021/09/24 00:57:32;;;;;;;9.85;6.00;;;;;;;15.66;100.00;101635.22;5266527;28;20050;-67
2021/09/24 01:00:05;;;;;;;9.52;5.85;;;;;;;15.63;100.00;101628.38;5260397;28;20083;-67
2021/09/24 01:02:37;;;;;;;11.48;6.90;;;;;;;15.65;100.00;101629.13;5265559;28;20089;-67
2021/09/24 01:05:09;;;;;;;10.70;6.78;;;;;;;15.68;100.00;101627.97;5264957;28;20570;-67
2021/09/24 01:07:43;;;;;;;16.17;8.80;;;;;;;15.67;100.00;101629.78;5264144;28;20401;-67
2021/09/24 01:10:15;;;;;;;17.52;9.00;;;;;;;15.66;100.00;101624.66;5263077;28;20298;-67
2021/09/24 01:12:47;;;;;;;13.98;9.27;;;;;;;15.68;100.00;101630.63;5262897;28;20115;-67
2021/09/24 01:15:19;;;;;;;14.55;10.77;;;;;;;15.69;100.00;101625.22;5266144;28;20537;-67
2021/09/24 01:17:50;;;;;;;16.38;11.50;;;;;;;15.67;100.00;101618.41;5263532;28;20475;-67
2021/09/24 01:20:22;;;;;;;16.27;11.45;;;;;;;15.70;100.00;101621.59;5265312;28;20047;-67
2021/09/24 01:22:53;;;;;;;18.42;12.52;;;;;;;15.72;100.00;101609.09;5266384;28;20106;-67
2021/09/24 01:25:25;;;;;;;18.58;13.02;;;;;;;15.73;100.00;101613.38;5263331;28;20044;-67
2021/09/24 01:27:57;;;;;;;19.13;13.55;;;;;;;15.73;100.00;101613.38;5264166;28;20103;-67
2021/09/24 01:30:28;;;;;;;15.55;13.40;;;;;;;15.75;100.00;101611.41;5266250;28;21195;-67
2021/09/24 01:32:59;;;;;;;19.52;14.65;;;;;;;15.74;100.00;101612.41;5261574;28;20440;-67
2021/09/24 01:35:31;;;;;;;20.70;15.30;;;;;;;15.75;100.00;101610.56;5265134;28;20021;-67
2021/09/24 01:38:02;;;;;;;18.52;14.85;;;;;;;15.73;100.00;101605.44;5262387;28;20027;-67
2021/09/24 01:40:33;;;;;;;18.27;15.93;;;;;;;15.75;100.00;101605.28;5263760;28;20055;-67
2021/09/24 01:43:05;;;;;;;20.73;16.05;;;;;;;15.73;100.00;101608.09;5264511;28;20040;-67
2021/09/24 01:45:36;;;;;;;20.85;16.40;;;;;;;15.74;100.00;101599.19;5262496;28;20051;-67
2021/09/24 01:48:07;;;;;;;24.30;16.58;;;;;;;15.73;100.00;101594.88;5266239;28;20868;-67
2021/09/24 01:50:39;;;;;;;25.00;17.60;;;;;;;15.74;100.00;101593.91;5267281;28;20029;-67
2021/09/24 01:53:10;;;;;;;21.00;16.55;;;;;;;15.73;100.00;101588.78;5264833;28;20020;-67
2021/09/24 01:55:41;;;;;;;23.50;17.65;;;;;;;15.70;100.00;101587.25;5263619;28;20047;-67
2021/09/24 01:58:13;;;;;;;21.77;17.48;;;;;;;15.69;100.00;101590.88;5263844;28;20016;-67
2021/09/24 02:00:44;;;;;;;22.98;17.27;;;;;;;15.70;100.00;101592.53;5263110;28;20070;-67
2021/09/24 02:03:16;;;;;;;23.95;18.92;;;;;;;15.71;100.00;101596.00;5265311;28;20039;-66
2021/09/24 02:05:47;;;;;;;26.73;20.42;;;;;;;15.74;100.00;101603.63;5261511;28;20031;-67
2021/09/24 02:08:18;;;;;;;30.65;19.80;;;;;;;15.73;100.00;101605.44;5264342;28;20090;-67
2021/09/24 02:10:49;;;;;;;31.27;20.65;;;;;;;15.71;100.00;101593.34;5260934;28;20545;-67
2021/09/24 02:13:21;;;;;;;32.88;22.75;;;;;;;15.70;100.00;101592.53;5264417;28;20501;-67
2021/09/24 02:15:52;;;;;;;34.47;21.52;;;;;;;15.72;100.00;101595.88;5264811;28;20158;-66
2021/09/24 02:18:23;;;;;;;27.90;21.17;;;;;;;15.73;100.00;101596.69;5264153;28;20056;-67
2021/09/24 02:20:55;;;;;;;30.27;22.55;;;;;;;15.74;100.00;101595.72;5266188;28;20155;-67
2021/09/24 02:23:26;;;;;;;32.03;23.55;;;;;;;15.72;100.00;101587.09;5267879;28;20032;-67
2021/09/24 02:25:58;;;;;;;32.83;24.13;;;;;;;15.71;100.00;101590.72;5267981;28;20028;-67
2021/09/24 02:28:30;;;;;;;35.30;25.00;;;;;;;15.73;100.00;101586.97;5268175;28;20024;-67
2021/09/24 02:31:01;;;;;;;41.60;26.20;;;;;;;15.71;100.00;101588.06;5266604;28;20322;-67
2021/09/24 02:33:32;;;;;;;40.60;28.38;;;;;;;15.71;100.00;101586.25;5266583;28;20471;-67
2021/09/24 02:36:06;;;;;;;48.92;30.92;;;;;;;15.70;100.00;101579.31;5264630;28;20063;-67
2021/09/24 02:38:37;;;;;;;45.92;29.85;;;;;;;15.66;100.00;101585.88;5265764;28;20044;-67
2021/09/24 02:41:11;;;;;;;45.97;31.23;;;;;;;15.67;100.00;101574.31;5269708;28;20051;-67
2021/09/24 02:43:43;;;;;;;46.40;31.10;;;;;;;15.67;100.00;101576.97;5268817;28;20032;-67
2021/09/24 02:46:14;;;;;;;47.17;31.48;;;;;;;15.67;100.00;101579.59;5268537;28;20021;-67
2021/09/24 02:48:46;;;;;;;47.38;31.95;;;;;;;15.69;100.00;101585.59;5265778;28;20083;-67
2021/09/24 02:51:17;;;;;;;55.05;33.30;;;;;;;15.70;100.00;101579.31;5265317;28;20028;-67
2021/09/24 02:53:48;;;;;;;53.03;34.15;;;;;;;15.68;100.00;101575.16;5265106;28;20080;-67
2021/09/24 02:56:20;;;;;;;52.45;34.15;;;;;;;15.68;100.00;101573.38;5267988;28;20060;-67
2021/09/24 02:58:51;;;;;;;57.42;35.72;;;;;;;15.68;100.00;101568.09;5266001;28;20025;-67
2021/09/24 03:01:22;;;;;;;57.78;35.30;;;;;;;15.70;100.00;101575.84;5269055;28;20093;-67
2021/09/24 03:03:54;;;;;;;54.95;36.35;;;;;;;15.70;100.00;101581.97;5262859;28;20476;-67
2021/09/24 03:06:25;;;;;;;54.65;35.60;;;;;;;15.70;100.00;101579.31;5266399;28;20017;-67
2021/09/24 03:08:56;;;;;;;53.45;36.55;;;;;;;15.69;100.00;101575.03;5266287;28;20025;-67
2021/09/24 03:11:28;;;;;;;58.78;37.78;;;;;;;15.70;100.00;101576.69;5266171;28;20035;-67
2021/09/24 03:13:59;;;;;;;64.00;39.30;;;;;;;15.69;100.00;101575.03;5266680;28;20381;-67
2021/09/24 03:16:30;;;;;;;63.55;38.78;;;;;;;15.71;100.00;101577.50;5264374;28;20037;-67
2021/09/24 03:19:02;;;;;;;61.67;39.47;;;;;;;15.71;100.00;101566.94;5265182;28;20035;-68
2021/09/24 03:21:33;;;;;;;57.58;38.38;;;;;;;15.68;100.00;101570.72;5267991;28;20344;-67
2021/09/24 03:24:04;;;;;;;60.83;39.47;;;;;;;15.69;100.00;101566.28;5265179;28;20037;-67
2021/09/24 03:26:36;;;;;;;59.00;41.60;;;;;;;15.69;100.00;101566.28;5264719;28;20086;-67
2021/09/24 03:29:08;;;;;;;66.97;41.55;;;;;;;15.69;100.00;101563.63;5265573;28;20029;-68
2021/09/24 03:31:41;;;;;;;62.78;40.33;;;;;;;15.69;100.00;101559.16;5266719;28;20029;-67
2021/09/24 03:34:12;;;;;;;61.22;41.75;;;;;;;15.69;100.00;101567.09;5268706;28;20370;-67
2021/09/24 03:36:43;;;;;;;64.45;41.90;;;;;;;15.66;100.00;101570.03;5267102;28;20036;-67
2021/09/24 03:39:15;;;;;;;62.90;43.58;;;;;;;15.68;100.00;101573.38;5264881;28;20071;-67
2021/09/24 03:41:46;;;;;;;70.03;44.55;;;;;;;15.66;100.00;101575.31;5265441;28;20490;-67
2021/09/24 03:44:17;;;;;;;63.20;44.03;;;;;;;15.65;100.00;101578.06;5265143;28;20025;-67
2021/09/24 03:46:49;;;;;;;69.10;45.38;;;;;;;15.67;100.00;101574.31;5266186;28;20028;-67
2021/09/24 03:49:20;;;;;;;67.15;45.10;;;;;;;15.65;100.00;101578.06;5263106;28;20082;-68
2021/09/24 03:51:52;;;;;;;65.72;44.13;;;;;;;15.67;100.00;101581.41;5263034;28;20071;-68
2021/09/24 03:54:23;;;;;;;67.80;45.42;;;;;;;15.67;100.00;101584.88;5266907;28;20051;-67
2021/09/24 03:56:55;;;;;;;68.78;45.78;;;;;;;15.63;100.00;101578.19;5266144;28;20024;-67
2021/09/24 03:59:27;;;;;;;76.40;47.80;;;;;;;15.65;100.00;101578.94;5265458;28;20043;-67
2021/09/24 04:01:58;;;;;;;69.10;45.72;;;;;;;15.63;100.00;101574.72;5258050;28;20037;-67
2021/09/24 04:04:29;;;;;;;80.82;47.28;;;;;;;15.65;100.00;101568.38;5266323;28;20043;-67
2021/09/24 04:07:01;;;;;;;80.82;49.10;;;;;;;15.68;100.00;101578.66;5264214;28;20027;-67
2021/09/24 04:09:32;;;;;;;77.97;46.95;;;;;;;15.67;100.00;101576.13;5261512;28;20025;-67
2021/09/24 04:12:04;;;;;;;88.72;50.78;;;;;;;15.62;100.00;101568.63;5265299;28;20032;-67
2021/09/24 04:14:36;;;;;;;82.82;50.33;;;;;;;15.62;100.00;101565.97;5266755;28;20028;-67
2021/09/24 04:17:08;;;;;;;78.25;50.38;;;;;;;15.63;100.00;101569.44;5265870;28;20027;-67
2021/09/24 04:19:39;;;;;;;90.85;51.45;;;;;;;15.63;100.00;101569.44;5262972;28;20397;-67
2021/09/24 04:22:10;;;;;;;93.55;51.83;;;;;;;15.58;100.00;101568.06;5260539;28;20020;-67
2021/09/24 04:24:41;;;;;;;93.53;51.08;;;;;;;15.57;100.00;101581.44;5265277;28;20050;-67
2021/09/24 04:27:13;;;;;;;88.10;49.17;;;;;;;15.59;100.00;101571.56;5265956;28;20013;-67
2021/09/24 04:29:45;;;;;;;101.10;51.35;;;;;;;15.59;100.00;101584.75;5262537;28;20063;-67
2021/09/24 04:32:16;;;;;;;95.15;50.92;;;;;;;15.58;100.00;101575.19;5263186;28;20020;-67
2021/09/24 04:34:47;;;;;;;103.20;53.00;;;;;;;15.54;100.00;101581.72;5261490;28;20090;-67
2021/09/24 04:37:19;;;;;;;102.57;54.38;;;;;;;15.56;100.00;101577.13;5266857;28;20043;-67
2021/09/24 04:39:50;;;;;;;109.50;54.05;;;;;;;15.51;100.00;101576.72;5261326;28;20045;-67
2021/09/24 04:42:22;;;;;;;94.60;50.40;;;;;;;15.56;100.00;101571.84;5261733;28;20975;-67
2021/09/24 04:44:53;;;;;;;102.80;51.92;;;;;;;15.53;100.00;101574.75;5265288;28;20024;-67
2021/09/24 04:47:24;;;;;;;105.15;51.53;;;;;;;15.50;100.00;101575.06;5265450;28;20497;-67
2021/09/24 04:49:56;;;;;;;103.43;48.33;;;;;;;15.49;100.00;101574.25;5264847;28;20068;-67
2021/09/24 04:52:27;;;;;;;103.78;49.08;;;;;;;15.46;100.00;101571.06;5264579;28;20033;-67
2021/09/24 04:54:58;;;;;;;101.78;48.60;;;;;;;15.49;100.00;101576.03;5265210;28;20025;-67
2021/09/24 04:57:30;;;;;;;99.57;47.45;;;;;;;15.46;100.00;101581.63;5265150;28;20501;-67
2021/09/24 05:00:02;;;;;;;88.32;45.95;;;;;;;15.42;100.00;101583.72;5264283;28;20146;-67
2021/09/24 05:02:33;;;;;;;97.07;47.77;;;;;;;15.42;100.00;101583.72;5264780;28;20025;-67
2021/09/24 05:05:05;;;;;;;91.95;46.45;;;;;;;15.43;100.00;101584.53;5265615;28;20024;-67
2021/09/24 05:07:37;;;;;;;90.38;45.17;;;;;;;15.44;100.00;101580.91;5263872;28;20070;-67
2021/09/24 05:10:09;;;;;;;92.43;44.05;;;;;;;15.44;100.00;101592.31;5260485;28;20029;-67
2021/09/24 05:12:40;;;;;;;86.85;42.35;;;;;;;15.39;100.00;101583.16;5262795;28;20032;-67
2021/09/24 05:15:11;;;;;;;89.32;42.67;;;;;;;15.40;100.00;101590.09;5259642;28;20071;-67
2021/09/24 05:17:43;;;;;;;81.78;40.60;;;;;;;15.42;100.00;101590.78;5262320;28;20063;-67
2021/09/24 05:20:14;;;;;;;78.03;39.63;;;;;;;15.40;100.00;101587.47;5262274;28;20123;-67
2021/09/24 05:22:45;;;;;;;75.60;38.70;;;;;;;15.36;100.00;101589.56;5265135;28;20051;-67
2021/09/24 05:25:17;;;;;;;74.00;38.60;;;;;;;15.37;100.00;101591.22;5260759;28;20697;-67
2021/09/24 05:27:49;;;;;;;72.03;38.22;;;;;;;15.34;100.00;101591.50;5262373;28;20513;-66
2021/09/24 05:30:21;;;;;;;67.75;37.13;;;;;;;15.31;100.00;101579.44;5263916;28;20017;-67
2021/09/24 05:32:53;;;;;;;71.15;36.47;;;;;;;15.32;100.00;101589.00;5264935;28;20482;-67
2021/09/24 05:35:25;;;;;;;64.15;35.38;;;;;;;15.36;100.00;101588.72;5262461;28;20531;-67
2021/09/24 05:37:57;;;;;;;63.38;34.63;;;;;;;15.35;100.00;101593.19;5264336;28;20050;-67
2021/09/24 05:40:28;;;;;;;65.22;35.13;;;;;;;15.37;100.00;101596.50;5265237;28;20045;-68
2021/09/24 05:43:00;;;;;;;59.65;33.42;;;;;;;15.40;100.00;101595.38;5260796;28;20146;-67
2021/09/24 05:45:31;;;;;;;59.35;33.85;;;;;;;15.39;100.00;101596.38;5260498;28;20486;-67
2021/09/24 05:48:03;;;;;;;59.58;34.22;;;;;;;15.39;100.00;101591.09;5261636;28;20723;-67
2021/09/24 05:50:34;;;;;;;53.72;33.63;;;;;;;15.41;100.00;101597.88;5262908;28;20033;-67
2021/09/24 05:53:05;;;;;;;55.80;33.47;;;;;;;15.42;100.00;101594.28;5261007;28;20405;-67
2021/09/24 05:55:38;;;;;;;58.03;32.95;;;;;;;15.44;100.00;101588.84;5267143;28;20057;-67
2021/09/24 05:58:10;;;;;;;56.08;32.70;;;;;;;15.43;100.00;101584.53;5268116;28;20382;-67
2021/09/24 06:00:41;;;;;;;53.08;31.25;;;;;;;15.45;100.00;101586.03;5267591;28;20029;-67
2021/09/24 06:03:13;;;;;;;54.50;32.90;;;;;;;15.46;100.00;101581.63;5269037;28;20027;-67
2021/09/24 06:05:45;;;;;;;58.97;33.13;;;;;;;15.44;100.00;101581.75;5266979;28;20044;-67
2021/09/24 06:08:16;;;;;;;53.95;33.30;;;;;;;15.47;100.00;101588.56;5268898;28;20474;-67
2021/09/24 06:10:47;;;;;;;57.88;33.28;;;;;;;15.48;100.00;101587.56;5266285;28;20073;-67
2021/09/24 06:13:19;;;;;;;58.63;34.00;;;;;;;15.47;100.00;101585.91;5269216;28;20040;-67
2021/09/24 06:15:50;;;;;;;63.60;34.75;;;;;;;15.48;100.00;101585.75;5267505;28;20033;-70
2021/09/24 06:18:22;;;;;;;54.20;32.47;;;;;;;15.50;100.00;101585.63;5256544;28;20173;-68
2021/09/24 06:20:53;;;;;;;60.47;33.47;;;;;;;15.53;100.00;101590.59;5262654;28;20378;-67
2021/09/24 06:23:24;;;;;;;59.85;34.63;;;;;;;15.56;100.00;101585.03;5265154;28;20093;-67
2021/09/24 06:25:58;;;;;;;60.65;34.92;;;;;;;15.57;100.00;101582.28;5265087;28;20024;-67
2021/09/24 06:28:30;;;;;;;60.85;35.70;;;;;;;15.55;100.00;101578.94;5266532;28;20025;-68
2021/09/24 06:31:01;;;;;;;62.58;35.92;;;;;;;15.55;100.00;101576.28;5266554;28;20015;-68
2021/09/24 06:33:32;;;;;;;57.00;33.97;;;;;;;15.58;100.00;101577.81;5265871;28;20109;-68
2021/09/24 06:36:04;;;;;;;55.53;33.78;;;;;;;15.60;100.00;101581.13;5266648;28;20052;-68
2021/09/24 06:38:35;;;;;;;56.45;34.35;;;;;;;15.61;100.00;101584.59;5267201;28;20390;-68
2021/09/24 06:41:07;;;;;;;57.85;33.38;;;;;;;15.61;100.00;101582.81;5266364;28;20145;-68
2021/09/24 06:43:38;;;;;;;57.72;35.00;;;;;;;15.62;100.00;101584.47;5256473;28;20535;-68
2021/09/24 06:46:09;;;;;;;56.22;33.40;;;;;;;15.65;100.00;101581.56;5268482;28;20370;-67
2021/09/24 06:48:41;;;;;;;58.15;33.88;;;;;;;15.66;100.00;101579.75;5265806;28;20025;-68
2021/09/24 06:51:12;;;;;;;64.03;34.53;;;;;;;15.67;100.00;101581.41;5265377;28;20024;-68
2021/09/24 06:53:43;;;;;;;54.05;32.58;;;;;;;15.70;100.00;101578.50;5265409;28;20024;-68
2021/09/24 06:56:14;;;;;;;59.55;34.92;;;;;;;15.70;100.00;101581.97;5259925;28;20033;-68
2021/09/24 06:58:46;;;;;;;51.15;32.22;;;;;;;15.72;100.00;101579.16;5263443;28;20017;-68
2021/09/24 07:01:17;;;;;;;52.60;32.45;;;;;;;15.73;100.00;101579.03;5260329;28;20108;-68
2021/09/24 07:03:48;;;;;;;57.15;34.33;;;;;;;15.71;100.00;101578.34;5261233;28;20036;-68
2021/09/24 07:06:20;;;;;;;60.63;33.70;;;;;;;15.74;100.00;101577.22;5266472;28;20051;-68
2021/09/24 07:08:51;;;;;;;54.70;32.90;;;;;;;15.75;100.00;101577.06;5267484;28;20693;-68
2021/09/24 07:11:24;;;;;;;53.88;32.60;;;;;;;15.77;100.00;101577.75;5266137;28;20024;-68
2021/09/24 07:13:55;;;;;;;48.72;32.50;;;;;;;15.81;100.00;101578.31;5267283;28;20060;-68
2021/09/24 07:16:26;;;;;;;48.25;31.98;;;;;;;15.81;100.00;101570.38;5265492;28;20064;-68
2021/09/24 07:18:57;;;;;;;50.28;32.95;;;;;;;15.85;100.00;101568.28;5263455;28;20465;-68
2021/09/24 07:21:29;;;;;;;46.05;30.55;;;;;;;15.86;100.00;101568.13;5263536;28;20033;-67
2021/09/24 07:24:01;;;;;;;48.15;29.77;;;;;;;15.88;100.00;101574.09;5263404;28;20082;-68
2021/09/24 07:26:33;;;;;;;43.17;29.23;;;;;;;15.95;100.00;101579.63;5264965;28;20106;-68
2021/09/24 07:29:05;;;;;;;45.03;28.33;;;;;;;15.98;100.00;101574.03;5268726;28;20096;-67
2021/09/24 07:31:36;;;;;;;44.38;29.48;;;;;;;16.00;100.00;101578.19;5260664;28;20111;-67
2021/09/24 07:34:08;;;;;;;45.30;31.05;;;;;;;16.02;100.00;101573.63;5263490;28;20112;-67
2021/09/24 07:36:39;;;;;;;46.00;30.20;;;;;;;16.06;100.00;101576.75;5265632;28;20025;-67
2021/09/24 07:39:10;;;;;;;38.05;28.40;;;;;;;16.08;100.00;101574.00;5262862;28;20048;-67
2021/09/24 07:41:42;;;;;;;42.35;28.70;;;;;;;16.13;100.00;101577.84;5256727;28;20025;-68
2021/09/24 07:44:13;;;;;;;46.70;32.03;;;;;;;16.15;100.00;101583.81;5260923;28;20434;-67
2021/09/24 07:46:47;;;;;;;40.45;28.50;;;;;;;16.20;100.00;101580.72;5263127;28;20029;-67
2021/09/24 07:49:18;;;;;;;39.33;28.60;;;;;;;16.22;100.00;101587.53;5263050;28;20028;-67
2021/09/24 07:51:51;;;;;;;40.90;28.45;;;;;;;16.23;100.00;101588.38;5263225;28;20040;-68
2021/09/24 07:54:24;;;;;;;44.30;27.95;;;;;;;16.33;100.00;101583.00;5259399;28;20036;-67
2021/09/24 07:56:55;;;;;;;42.28;27.77;;;;;;;16.40;100.00;101587.56;5261328;28;20382;-67
2021/09/24 07:59:26;;;;;;;36.70;27.65;;;;;;;16.46;100.00;101583.47;5262784;28;20028;-68
2021/09/24 08:01:58;;;;;;;39.15;27.52;;;;;;;16.52;100.00;101585.53;5260779;28;20033;-68
2021/09/24 08:04:29;;;;;;;38.83;26.60;;;;;;;16.55;100.00;101587.84;5262356;28;20108;-68
2021/09/24 08:07:01;;;;;;;41.80;27.73;;;;;;;16.63;100.00;101579.16;5266414;28;20040;-67
2021/09/24 08:09:32;;;;;;;38.95;26.67;;;;;;;16.71;100.00;101593.31;5265588;28;20020;-67
2021/09/24 08:12:04;;;;;;;38.67;27.98;;;;;;;16.81;100.00;101587.94;5256926;28;20049;-68
2021/09/24 08:14:36;;;;;;;37.53;26.52;;;;;;;16.87;100.00;101591.81;5264122;28;20037;-68
2021/09/24 08:17:07;;;;;;;39.28;26.92;;;;;;;16.93;100.00;101596.47;5265319;28;20033;-68
2021/09/24 08:19:39;;;;;;;33.90;25.83;;;;;;;16.99;100.00;101595.88;5264825;28;20303;-68
2021/09/24 08:22:10;;;;;;;33.65;26.00;;;;;;;17.02;100.00;101600.88;5261995;28;20098;-68
2021/09/24 08:24:42;;;;;;;34.55;25.75;;;;;;;17.08;100.00;101592.31;5261870;28;20028;-68
2021/09/24 08:27:13;;;;;;;34.10;25.40;;;;;;;17.12;100.00;101598.13;5262683;28;20049;-69
2021/09/24 08:29:44;;;;;;;39.08;27.17;;;;;;;17.25;100.00;101606.50;5256611;28;20103;-68
2021/09/24 08:32:16;;;;;;;36.08;26.95;;;;;;;17.29;100.00;101604.38;5263540;28;20033;-69
2021/09/24 08:34:47;;;;;;;31.80;26.23;;;;;;;17.33;100.00;101605.72;5262560;28;20110;-68
2021/09/24 08:37:18;;;;;;;33.30;24.63;;;;;;;17.45;100.00;101602.66;5266124;28;20040;-68
2021/09/24 08:39:50;;;;;;;31.17;25.97;;;;;;;17.62;100.00;101608.06;5263829;28;20498;-68
2021/09/24 08:42:21;;;;;;;31.20;25.55;;;;;;;17.62;100.00;101605.41;5266245;28;20501;-68
2021/09/24 08:44:53;;;;;;;32.08;25.00;;;;;;;17.67;100.00;101611.06;5268010;28;20072;-69
2021/09/24 08:47:27;;;;;;;35.77;26.07;;;;;;;17.63;100.00;101610.53;5261670;28;20036;-69
2021/09/24 08:49:59;;;;;;;34.45;25.25;;;;;;;17.66;100.00;101607.56;5256533;28;20107;-69
2021/09/24 08:52:30;;;;;;;30.63;25.17;;;;;;;17.75;100.00;101598.69;5266657;28;20127;-68
2021/09/24 08:55:07;;;;;;;30.43;25.03;;;;;;;17.68;100.00;101605.59;5263648;28;20074;-68
2021/09/24 08:57:41;;;;;;;28.90;23.77;;;;;;;17.69;100.00;101596.66;5264599;28;20466;-68
2021/09/24 09:00:16;;;;;;;32.45;24.48;;;;;;;17.72;100.00;101603.44;5262868;28;20033;-68
2021/09/24 09:03:01;;;;;;;27.05;23.65;;;;;;;17.71;100.00;101615.06;5258183;28;20047;-68
2021/09/24 09:05:35;;;;;;;30.60;24.23;;;;;;;17.70;100.00;101608.94;5262214;28;20124;-68
2021/09/24 09:08:16;;;;;;;28.95;23.13;;;;;;;17.73;100.00;101603.31;5263021;28;20024;-69
2021/09/24 09:10:56;;;;;;;28.17;22.60;;;;;;;17.77;100.00;101617.13;5262900;28;20359;-69
2021/09/24 09:13:38;;;;;;;30.60;23.73;;;;;;;17.72;100.00;101616.69;5263714;28;20029;-69
2021/09/24 09:16:15;;;;;;;27.83;22.80;;;;;;;17.72;100.00;101611.41;5260884;28;20466;-69
2021/09/24 09:18:49;;;;;;;27.67;23.25;;;;;;;17.74;100.00;101601.50;5261586;28;20108;-69
2021/09/24 09:21:23;;;;;;;24.45;21.60;;;;;;;17.77;100.00;101609.16;5257122;28;20035;-67
2021/09/24 09:23:55;;;;;;;25.88;22.70;;;;;;;17.77;100.00;101605.66;5260022;28;20049;-68
2021/09/24 09:26:26;;;;;;;26.63;21.95;;;;;;;17.83;100.00;101605.84;5262211;28;20775;-68
2021/09/24 09:28:59;;;;;;;23.40;20.55;;;;;;;17.87;100.00;101611.66;5264764;28;20040;-68
2021/09/24 09:31:32;;;;;;;25.45;22.00;;;;;;;17.86;100.00;101607.38;5269439;28;20037;-68
2021/09/24 09:34:07;;;;;;;23.63;20.67;;;;;;;17.91;100.00;101608.53;5265187;28;20016;-68
2021/09/24 09:36:42;;;;;;;30.00;21.45;;;;;;;17.87;100.00;101601.91;5267409;28;20029;-69
2021/09/24 09:39:15;;;;;;;26.15;21.13;;;;;;;17.87;100.00;101591.28;5268571;28;20135;-70
2021/09/24 09:41:53;;;;;;;24.33;20.55;;;;;;;17.96;100.00;101594.81;5269412;28;20045;-68
2021/09/24 09:44:29;;;;;;;25.25;21.63;;;;;;;18.01;100.00;101600.47;5268222;28;20032;-69
2021/09/24 09:47:01;;;;;;;24.52;21.92;;;;;;;17.98;100.00;101598.13;5266450;28;20032;-68
2021/09/24 09:49:32;;;;;;;24.13;20.33;;;;;;;18.03;100.00;101593.16;5265497;28;20563;-68
2021/09/24 09:52:09;;;;;;;24.77;20.93;;;;;;;18.06;100.00;101594.69;5266599;28;20032;-68
2021/09/24 09:54:41;;;;;;;25.90;21.75;;;;;;;18.00;100.00;101596.16;5269059;28;20071;-69
2021/09/24 09:57:16;;;;;;;24.65;20.52;;;;;;;18.05;100.00;101600.97;5240796;28;20111;-68
2021/09/24 09:59:53;;;;;;;23.88;21.38;;;;;;;18.00;100.00;101604.13;5261925;28;20070;-68
2021/09/24 10:02:32;;;;;;;25.38;20.33;;;;;;;18.01;100.00;101600.47;5262528;28;20076;-69
2021/09/24 10:05:04;;;;;;;23.58;19.95;;;;;;;17.97;100.00;101596.47;5263196;28;20024;-68
2021/09/24 10:07:38;;;;;;;26.45;23.75;;;;;;;17.94;100.00;101591.50;5263005;28;20032;-68
2021/09/24 10:10:15;;;;;;;26.33;22.58;;;;;;;17.94;100.00;101588.84;5263765;28;20025;-68
2021/09/24 10:12:46;;;;;;;27.42;23.75;;;;;;;17.98;100.00;101598.13;5261913;28;20128;-68
2021/09/24 10:15:17;;;;;;;25.88;23.08;;;;;;;18.03;100.00;101592.34;5259889;28;20074;-68
2021/09/24 10:17:50;;;;;;;25.55;22.58;;;;;;;17.98;100.00;101592.81;5266584;28;20033;-68
2021/09/24 10:20:21;;;;;;;24.20;21.52;;;;;;;17.99;100.00;101595.34;5269057;28;20462;-68
2021/09/24 10:22:52;;;;;;;29.52;20.70;;;;;;;18.09;100.00;101597.84;5267626;28;20037;-69
2021/09/24 10:25:24;;;;;;;25.20;21.65;;;;;;;18.09;100.00;101592.53;5268481;28;20036;-69
2021/09/24 10:27:56;;;;;;;26.73;22.83;;;;;;;18.15;100.00;101593.72;5264836;28;20112;-69
2021/09/24 10:30:29;;;;;;;26.65;22.95;;;;;;;18.14;100.00;101597.34;5263368;28;20025;-68
2021/09/24 10:33:05;;;;;;;;;;;;;;;18.42;100.00;101592.63;5267030;28;20005;-69
2021/09/24 10:35:50;;;;;;;24.50;21.85;;;;;;;18.30;100.00;101585.97;5258814;28;20274;-68
2021/09/24 10:38:25;;;;;;;25.65;22.98;;;;;;;18.26;100.00;101580.16;5265424;28;20024;-69
2021/09/24 10:41:05;;;;;;;23.98;21.60;;;;;;;18.31;100.00;101579.66;5261361;28;20191;-69
2021/09/24 10:43:56;;;;;;;24.80;22.27;;;;;;;18.41;100.00;101578.53;5263812;28;20093;-69
2021/09/24 10:46:27;;;;;;;27.23;24.08;;;;;;;18.28;100.00;101583.47;5261722;28;20037;-69
2021/09/24 10:49:18;;;;;;;24.77;21.90;;;;;;;18.38;100.00;101592.13;5258074;28;20078;-69
2021/09/24 10:52:05;;;;;;;24.13;21.75;;;;;;;18.39;100.00;101590.28;5261682;28;20147;-69
2021/09/24 10:54:57;;;;;;;24.10;21.83;;;;;;;18.43;100.00;101583.66;5263139;28;20481;-69
2021/09/24 10:57:50;;;;;;;25.17;22.40;;;;;;;18.44;100.00;101580.84;5262922;28;20083;-70
2021/09/24 11:00:23;;;;;;;23.67;21.10;;;;;;;18.40;100.00;101581.34;5255451;28;20040;-70
2021/09/24 11:03:11;;;;;;;23.65;21.20;;;;;;;18.57;100.00;101569.75;5262361;28;20296;-70
2021/09/24 11:05:58;;;;;;;22.88;19.58;;;;;;;18.62;100.00;101571.91;5267066;28;20111;-70
2021/09/24 11:08:32;;;;;;;21.10;19.02;;;;;;;18.63;100.00;101558.47;5264317;28;20434;-70
2021/09/24 11:11:09;;;;;;;20.52;18.13;;;;;;;18.67;100.00;101553.66;5265096;28;20508;-70
2021/09/24 11:13:46;;;;;;;18.67;16.77;;;;;;;18.65;100.00;101551.19;5267825;28;20490;-70
2021/09/24 11:16:21;;;;;;;19.92;15.27;;;;;;;18.56;100.00;101548.69;5267518;28;20064;-70
2021/09/24 11:19:00;;;;;;;18.08;16.08;;;;;;;18.58;100.00;101541.41;5262622;28;20023;-70
2021/09/24 11:21:32;;;;;;;16.75;14.25;;;;;;;18.63;100.00;101539.88;5261278;28;20036;-70
2021/09/24 11:24:23;;;;;;;15.00;13.43;;;;;;;18.74;100.00;101541.41;5266122;28;20040;-70
2021/09/24 11:26:57;;;;;;;17.10;14.18;;;;;;;18.87;100.00;101544.41;5258310;28;20044;-70